Eastman, Canada
Current Conditions -  °F | °C
As of 8:15 PM on Tuesday 25 Nov 2014 (Local Time) from KEFK Reporting Station
Overcast Overcast  
Wind Chill:   Ceiling: 5500
Heat Index:   Visibility: 10mi
Dew Point: -4°   Wind: 7mph
Humidity: 54%   Direction: 180°S
Pressure: 29.96"   Gusts: NA
Location:  45.3°N, 72.32°W
Report Text: KEFK 260115Z AUTO 18006KT 10SM OVC055 05/M04 A2996 RMK AO2 T00491038
Loading
Personal Weather Stations






























Interactive Weather Map New forecast layout! Learn more

10-Day Weather Forecast

Advertisements
Track Severe Weather on mobile